Time;durP1;ratioP1;P1;durP2;ratioP2;P2;SDS_P1;SDS_P2;PMS_P1;PMS_P2;Temp;Humidity;BMP_temperature;BMP_pressure;BME280_temperature;BME280_humidity;BME280_pressure;Samples;Min_cycle;Max_cycle;Signal;HPM_P1;HPM_P2
2023/10/29 00:00:43;;;;;;;0.88;0.40;;;12.50;99.90;;;;;;5048012;28;20055;-73
2023/10/29 00:03:10;;;;;;;2.83;0.40;;;12.40;99.90;;;;;;5021062;28;20039;-72
2023/10/29 00:05:36;;;;;;;1.73;0.30;;;12.50;99.90;;;;;;5011794;28;20029;-73
2023/10/29 00:08:02;;;;;;;0.75;0.30;;;12.40;99.90;;;;;;5013501;28;20060;-72
2023/10/29 00:10:28;;;;;;;1.73;0.45;;;12.50;99.90;;;;;;5026672;28;20041;-74
2023/10/29 00:12:53;;;;;;;2.40;0.60;;;12.50;99.90;;;;;;5027571;28;20057;-73
2023/10/29 00:15:19;;;;;;;2.42;0.45;;;12.60;99.90;;;;;;5026420;28;20566;-73
2023/10/29 00:17:44;;;;;;;9.48;1.17;;;12.50;99.90;;;;;;5019609;28;20394;-75
2023/10/29 00:20:10;;;;;;;2.20;0.20;;;12.50;99.90;;;;;;5046768;28;20119;-74
2023/10/29 00:22:35;;;;;;;0.82;0.25;;;12.60;99.90;;;;;;5046549;28;20025;-73
2023/10/29 00:25:01;;;;;;;1.35;0.30;;;12.60;99.90;;;;;;5029136;28;20021;-73
2023/10/29 00:27:27;;;;;;;1.25;0.30;;;12.60;99.90;;;;;;5024942;28;20388;-73
2023/10/29 00:29:52;;;;;;;1.13;0.30;;;12.60;99.90;;;;;;5023951;28;20120;-74
2023/10/29 00:32:18;;;;;;;1.55;0.32;;;12.60;99.90;;;;;;5019168;28;20810;-74
2023/10/29 00:34:46;;;;;;;5.90;0.40;;;12.60;99.90;;;;;;5019049;28;20032;-72
2023/10/29 00:37:12;;;;;;;3.83;0.50;;;12.60;99.90;;;;;;5010796;28;20032;-73
2023/10/29 00:39:38;;;;;;;0.43;0.20;;;12.60;99.90;;;;;;5009210;28;20022;-73
2023/10/29 00:42:03;;;;;;;2.47;0.52;;;12.60;99.90;;;;;;5031277;28;20032;-75
2023/10/29 00:44:29;;;;;;;2.88;0.38;;;12.60;99.90;;;;;;5028856;28;20032;-74
2023/10/29 00:46:55;;;;;;;2.80;0.77;;;12.60;99.90;;;;;;5031765;28;20022;-75
2023/10/29 00:49:21;;;;;;;1.75;0.20;;;12.60;99.90;;;;;;5008353;28;20026;-74
2023/10/29 00:51:47;;;;;;;0.40;0.20;;;12.70;99.90;;;;;;5026881;28;20060;-74
2023/10/29 00:54:12;;;;;;;3.13;0.50;;;12.60;99.90;;;;;;5008215;28;20065;-75
2023/10/29 00:56:39;;;;;;;2.20;0.20;;;12.70;99.90;;;;;;5026994;28;20053;-75
2023/10/29 00:59:06;;;;;;;1.70;0.25;;;12.70;99.90;;;;;;5026380;28;20062;-73
2023/10/29 01:01:32;;;;;;;0.73;0.28;;;12.70;99.90;;;;;;5035165;28;20037;-74
2023/10/29 01:03:59;;;;;;;3.60;0.40;;;12.70;99.90;;;;;;5018799;28;20026;-74
2023/10/29 01:06:25;;;;;;;5.32;0.45;;;12.70;99.90;;;;;;5008543;28;20080;-72
2023/10/29 01:08:51;;;;;;;1.77;0.32;;;12.80;99.90;;;;;;5009162;28;20033;-72
2023/10/29 01:11:17;;;;;;;0.82;0.20;;;12.80;99.90;;;;;;5007679;28;20025;-73
2023/10/29 01:13:43;;;;;;;4.40;0.50;;;12.80;99.90;;;;;;5017091;28;20140;-73
2023/10/29 01:16:08;;;;;;;1.05;0.40;;;12.80;99.90;;;;;;5008790;28;20030;-75
2023/10/29 01:18:34;;;;;;;5.68;0.30;;;12.80;99.90;;;;;;5013054;28;20040;-75
2023/10/29 01:20:59;;;;;;;0.65;0.30;;;12.90;99.90;;;;;;5009304;28;20053;-72
2023/10/29 01:23:27;;;;;;;5.45;0.40;;;12.90;99.90;;;;;;5008100;28;20033;-72
2023/10/29 01:25:55;;;;;;;1.17;0.20;;;12.80;99.90;;;;;;5027278;28;20032;-73
2023/10/29 01:28:21;;;;;;;1.92;0.30;;;12.90;99.90;;;;;;5008200;28;20025;-73
2023/10/29 01:30:46;;;;;;;2.05;0.30;;;12.80;99.90;;;;;;5037526;28;20490;-72
2023/10/29 01:33:12;;;;;;;4.03;0.30;;;12.90;99.90;;;;;;5014076;28;20049;-75
2023/10/29 01:35:37;;;;;;;2.42;0.20;;;12.90;99.90;;;;;;5038412;28;20120;-77
2023/10/29 01:38:03;;;;;;;3.00;0.73;;;12.90;99.90;;;;;;5019626;28;20735;-75
2023/10/29 01:40:28;;;;;;;2.53;0.13;;;12.90;99.90;;;;;;5012244;28;20042;-74
2023/10/29 01:42:54;;;;;;;2.15;0.40;;;12.80;99.90;;;;;;5011910;28;20174;-74
2023/10/29 01:45:19;;;;;;;2.05;0.25;;;12.90;99.90;;;;;;5020958;28;20041;-75
2023/10/29 01:47:45;;;;;;;0.45;0.10;;;12.90;99.90;;;;;;5023220;28;20033;-75
2023/10/29 01:50:11;;;;;;;0.93;0.20;;;12.90;99.90;;;;;;5041480;28;20551;-76
2023/10/29 01:52:40;;;;;;;1.13;0.20;;;12.90;99.90;;;;;;5024477;28;20122;-76
2023/10/29 01:55:06;;;;;;;1.65;0.30;;;12.90;99.90;;;;;;5040959;28;20094;-78
2023/10/29 01:57:38;;;;;;;0.70;0.10;;;12.90;99.90;;;;;;5037232;28;20029;-76
2023/10/29 02:00:08;;;;;;;1.27;0.17;;;12.80;99.90;;;;;;5023587;28;20021;-76
2023/10/29 02:02:34;;;;;;;1.17;0.38;;;12.80;99.90;;;;;;5022030;28;20074;-76
2023/10/29 02:05:01;;;;;;;1.30;0.20;;;12.90;99.90;;;;;;5011137;28;20812;-76
2023/10/29 02:07:27;;;;;;;2.17;0.30;;;12.90;99.90;;;;;;5037087;28;20028;-75
2023/10/29 02:09:52;;;;;;;1.80;0.75;;;12.90;99.90;;;;;;5037334;28;20025;-75
2023/10/29 02:12:19;;;;;;;1.00;0.25;;;12.90;99.90;;;;;;5043016;28;20033;-76
2023/10/29 02:14:44;;;;;;;4.00;0.22;;;12.90;99.90;;;;;;5020269;28;20044;-75
2023/10/29 02:17:11;;;;;;;1.55;0.20;;;12.90;99.90;;;;;;5022770;28;20446;-76
2023/10/29 02:19:36;;;;;;;1.30;0.20;;;13.00;99.90;;;;;;5021322;28;20084;-76
2023/10/29 02:22:02;;;;;;;1.55;0.45;;;13.00;99.90;;;;;;5038711;28;20045;-76
2023/10/29 02:24:27;;;;;;;1.92;0.30;;;13.10;99.90;;;;;;5021521;28;20029;-75
2023/10/29 02:26:53;;;;;;;0.40;0.00;;;13.10;99.90;;;;;;5037438;28;20030;-74
2023/10/29 02:29:18;;;;;;;5.53;0.20;;;13.10;99.90;;;;;;5019116;28;20045;-76
2023/10/29 02:31:44;;;;;;;1.27;0.10;;;13.10;99.90;;;;;;5022489;28;20048;-76
2023/10/29 02:34:11;;;;;;;1.55;0.22;;;13.10;99.90;;;;;;5038356;28;20491;-76
2023/10/29 02:36:37;;;;;;;2.83;0.20;;;13.10;99.90;;;;;;5043259;28;20044;-75
2023/10/29 02:39:02;;;;;;;1.10;0.10;;;13.10;99.90;;;;;;5023195;28;20048;-75
2023/10/29 02:41:28;;;;;;;0.47;0.17;;;13.10;99.90;;;;;;5021879;28;20033;-75
2023/10/29 02:43:55;;;;;;;0.30;0.20;;;13.10;99.90;;;;;;5023503;28;20064;-76
2023/10/29 02:46:20;;;;;;;1.23;0.10;;;13.00;99.90;;;;;;5018113;28;20029;-75
2023/10/29 02:48:46;;;;;;;5.47;0.28;;;13.00;99.90;;;;;;5040425;28;20048;-76
2023/10/29 02:51:12;;;;;;;1.58;0.63;;;13.00;99.90;;;;;;5022277;28;20533;-76
2023/10/29 02:53:39;;;;;;;10.05;0.25;;;12.70;99.90;;;;;;5022097;28;20038;-75
2023/10/29 02:56:05;;;;;;;2.50;0.80;;;12.40;99.90;;;;;;5020438;28;20045;-75
2023/10/29 02:58:30;;;;;;;2.05;0.00;;;12.10;99.90;;;;;;5019122;28;20037;-76
2023/10/29 03:01:07;;;;;;;2.42;0.08;;;11.90;99.90;;;;;;5018724;28;20534;-76
2023/10/29 03:03:33;;;;;;;0.95;0.22;;;11.70;99.90;;;;;;5018751;28;20510;-75
2023/10/29 03:05:58;;;;;;;6.35;0.20;;;11.60;99.90;;;;;;5020003;28;20033;-75
2023/10/29 03:08:24;;;;;;;0.75;0.10;;;11.60;99.90;;;;;;5035531;28;20532;-71
2023/10/29 03:10:50;;;;;;;1.70;0.30;;;11.40;99.90;;;;;;5043346;28;20043;-73
2023/10/29 03:13:16;;;;;;;3.83;0.15;;;11.60;99.90;;;;;;5017770;28;20103;-70
2023/10/29 03:15:42;;;;;;;0.45;0.00;;;11.50;99.90;;;;;;5040470;28;20490;-75
2023/10/29 03:18:07;;;;;;;2.55;0.35;;;11.50;99.90;;;;;;5037608;28;20029;-76
2023/10/29 03:20:33;;;;;;;3.20;0.40;;;11.50;99.90;;;;;;5016186;28;20053;-75
2023/10/29 03:22:58;;;;;;;0.70;0.20;;;11.50;99.90;;;;;;5037437;28;20037;-75
2023/10/29 03:25:24;;;;;;;3.85;0.20;;;11.50;99.90;;;;;;5038554;28;20063;-76
2023/10/29 03:27:50;;;;;;;1.77;0.30;;;11.60;99.90;;;;;;5018580;28;20033;-75
2023/10/29 03:30:15;;;;;;;1.15;0.43;;;11.60;99.90;;;;;;5017531;28;20159;-76
2023/10/29 03:32:41;;;;;;;0.93;0.10;;;11.70;99.90;;;;;;5018071;28;20030;-75
2023/10/29 03:35:07;;;;;;;2.47;0.40;;;11.70;99.90;;;;;;5017631;28;20029;-76
2023/10/29 03:37:32;;;;;;;0.30;0.10;;;11.80;99.90;;;;;;5017771;28;20040;-77
2023/10/29 03:39:58;;;;;;;3.60;0.20;;;11.80;99.90;;;;;;5018262;28;20056;-75
2023/10/29 03:42:24;;;;;;;0.63;0.20;;;11.80;99.90;;;;;;5017203;28;20599;-74
2023/10/29 03:44:49;;;;;;;0.82;0.25;;;11.90;99.90;;;;;;5014925;28;20034;-74
2023/10/29 03:47:15;;;;;;;2.72;0.10;;;12.00;99.90;;;;;;5020597;28;20753;-77
2023/10/29 03:49:44;;;;;;;0.77;0.40;;;12.00;99.90;;;;;;5018184;28;20052;-76
2023/10/29 03:52:09;;;;;;;6.65;0.47;;;12.10;99.90;;;;;;5013790;28;20052;-76
2023/10/29 03:54:35;;;;;;;4.55;0.40;;;12.10;99.90;;;;;;5012510;28;20486;-76
2023/10/29 03:57:00;;;;;;;1.40;0.15;;;12.20;99.90;;;;;;5022183;28;20134;-75
2023/10/29 03:59:26;;;;;;;4.40;0.52;;;12.20;99.90;;;;;;5021711;28;20033;-76
2023/10/29 04:01:52;;;;;;;0.88;0.20;;;12.20;99.90;;;;;;5021926;28;20635;-76
2023/10/29 04:04:18;;;;;;;2.67;0.20;;;12.30;99.90;;;;;;5023723;28;20828;-75
2023/10/29 04:06:43;;;;;;;0.75;0.30;;;12.30;99.90;;;;;;5034674;28;20037;-76
2023/10/29 04:09:09;;;;;;;1.38;0.22;;;12.30;99.90;;;;;;5022154;28;20033;-76
2023/10/29 04:11:35;;;;;;;1.48;0.30;;;12.30;99.90;;;;;;5016878;28;20049;-73
2023/10/29 04:14:01;;;;;;;3.13;0.38;;;12.40;99.90;;;;;;5021133;28;20025;-74
2023/10/29 04:16:27;;;;;;;4.05;0.30;;;12.30;99.90;;;;;;5031318;28;20040;-76
2023/10/29 04:18:53;;;;;;;4.55;0.25;;;12.40;99.90;;;;;;5043445;28;20510;-75
2023/10/29 04:21:19;;;;;;;1.85;0.20;;;12.40;99.90;;;;;;5016410;28;20036;-77
2023/10/29 04:23:44;;;;;;;4.97;0.73;;;12.40;99.90;;;;;;5034561;28;20029;-76
2023/10/29 04:26:10;;;;;;;3.45;0.95;;;12.40;99.90;;;;;;5034623;28;20459;-75
2023/10/29 04:28:36;;;;;;;1.63;0.20;;;12.40;99.90;;;;;;5040564;28;20107;-75
2023/10/29 04:31:02;;;;;;;1.73;0.20;;;12.40;99.90;;;;;;5025328;28;20040;-74
2023/10/29 04:33:28;;;;;;;1.65;0.63;;;12.50;99.90;;;;;;5040550;28;20033;-76
2023/10/29 04:35:54;;;;;;;2.00;0.10;;;12.40;99.90;;;;;;5024330;28;20203;-76
2023/10/29 04:38:19;;;;;;;1.77;0.10;;;12.40;99.90;;;;;;5038377;28;20064;-76
2023/10/29 04:40:45;;;;;;;5.13;0.75;;;12.40;99.90;;;;;;5009564;28;20491;-76
2023/10/29 04:43:11;;;;;;;4.70;0.45;;;12.40;99.90;;;;;;5037881;28;20128;-76
2023/10/29 04:45:37;;;;;;;0.70;0.10;;;12.40;99.90;;;;;;5020204;28;20116;-75
2023/10/29 04:48:02;;;;;;;2.83;0.10;;;12.40;99.90;;;;;;5018915;28;20398;-75
2023/10/29 04:50:30;;;;;;;2.13;0.15;;;12.40;99.90;;;;;;5024609;28;20458;-76
2023/10/29 04:52:56;;;;;;;4.45;0.20;;;12.40;99.90;;;;;;4998945;28;20037;-73
2023/10/29 04:55:22;;;;;;;3.85;0.30;;;12.40;99.90;;;;;;5019639;28;20067;-76
2023/10/29 04:57:48;;;;;;;1.10;0.22;;;12.40;99.90;;;;;;5020979;28;20037;-75
2023/10/29 05:00:13;;;;;;;2.88;0.43;;;12.30;99.90;;;;;;5017661;28;20395;-74
2023/10/29 05:02:39;;;;;;;1.27;0.43;;;12.40;99.90;;;;;;5024532;28;20044;-75
2023/10/29 05:05:06;;;;;;;0.93;0.10;;;12.40;99.90;;;;;;5017545;28;20033;-77
2023/10/29 05:07:32;;;;;;;0.65;0.10;;;12.40;99.90;;;;;;5037023;28;20095;-76
2023/10/29 05:09:58;;;;;;;2.55;0.10;;;12.40;99.90;;;;;;5042632;28;20522;-76
2023/10/29 05:12:24;;;;;;;0.45;0.10;;;12.50;99.90;;;;;;5036869;28;20029;-75
2023/10/29 05:14:51;;;;;;;0.55;0.05;;;12.40;99.90;;;;;;5016044;28;20044;-74
2023/10/29 05:17:17;;;;;;;1.13;0.10;;;12.40;99.90;;;;;;5019185;28;20022;-74
2023/10/29 05:19:44;;;;;;;2.03;0.55;;;12.40;99.90;;;;;;5038390;28;20501;-75
2023/10/29 05:22:09;;;;;;;5.38;0.30;;;12.40;99.90;;;;;;5023620;28;20112;-74
2023/10/29 05:24:35;;;;;;;1.58;0.10;;;12.40;99.90;;;;;;5020836;28;20111;-75
2023/10/29 05:27:01;;;;;;;3.08;0.38;;;12.30;99.90;;;;;;5027246;28;20036;-72
2023/10/29 05:29:31;;;;;;;0.28;0.00;;;12.30;99.90;;;;;;5017754;28;20060;-74
2023/10/29 05:31:56;;;;;;;1.25;0.30;;;12.30;99.90;;;;;;5025751;28;20044;-74
2023/10/29 05:34:22;;;;;;;0.93;0.08;;;12.30;99.90;;;;;;5018547;28;20041;-75
2023/10/29 05:36:47;;;;;;;1.60;0.17;;;12.30;99.90;;;;;;5027730;28;20127;-75
2023/10/29 05:39:14;;;;;;;0.57;0.10;;;12.30;99.90;;;;;;5019841;28;20033;-75
2023/10/29 05:41:40;;;;;;;4.00;0.22;;;12.40;99.90;;;;;;5019371;28;20025;-74
2023/10/29 05:44:06;;;;;;;1.30;0.10;;;12.40;99.90;;;;;;5045474;28;20410;-75
2023/10/29 05:46:32;;;;;;;0.85;0.20;;;12.40;99.90;;;;;;5015190;28;20045;-76
2023/10/29 05:48:58;;;;;;;2.58;0.20;;;12.40;99.90;;;;;;5031542;28;20034;-75
2023/10/29 05:51:23;;;;;;;3.55;0.40;;;12.40;99.90;;;;;;5023411;28;20048;-76
2023/10/29 05:53:49;;;;;;;3.83;0.13;;;12.40;99.90;;;;;;5027565;28;20034;-74
2023/10/29 05:56:15;;;;;;;1.38;0.17;;;12.40;99.90;;;;;;5022860;28;20039;-76
2023/10/29 05:58:41;;;;;;;4.10;0.32;;;12.40;99.90;;;;;;5023900;28;20029;-75
2023/10/29 06:01:07;;;;;;;3.45;0.20;;;12.30;99.90;;;;;;5015681;28;20057;-74
2023/10/29 06:03:34;;;;;;;1.60;0.10;;;12.30;99.90;;;;;;5030620;28;20514;-75
2023/10/29 06:06:00;;;;;;;2.85;0.10;;;12.30;99.90;;;;;;5012909;28;20029;-74
2023/10/29 06:08:25;;;;;;;1.55;0.50;;;12.30;99.90;;;;;;5040157;28;20387;-73
2023/10/29 06:10:51;;;;;;;3.30;0.80;;;12.20;99.90;;;;;;5026546;28;20128;-74
2023/10/29 06:13:17;;;;;;;5.85;0.28;;;12.20;99.90;;;;;;5014928;28;20040;-73
2023/10/29 06:15:42;;;;;;;6.22;1.02;;;12.10;99.90;;;;;;5045368;28;20439;-75
2023/10/29 06:18:08;;;;;;;3.88;0.28;;;12.10;99.90;;;;;;5019638;28;20036;-73
2023/10/29 06:20:34;;;;;;;6.70;1.00;;;12.00;99.90;;;;;;5016090;28;20487;-74
2023/10/29 06:22:59;;;;;;;7.78;0.45;;;12.00;99.90;;;;;;5019977;28;20037;-75
2023/10/29 06:25:26;;;;;;;6.72;1.10;;;12.00;99.90;;;;;;5018871;28;20053;-76
2023/10/29 06:27:52;;;;;;;2.42;0.32;;;12.00;99.90;;;;;;5009708;28;20033;-76
2023/10/29 06:30:18;;;;;;;2.80;0.20;;;12.00;99.90;;;;;;5016540;28;20021;-77
2023/10/29 06:32:43;;;;;;;3.95;0.35;;;11.90;99.90;;;;;;5023386;28;20552;-75
2023/10/29 06:35:09;;;;;;;4.95;0.88;;;11.90;99.90;;;;;;5040567;28;20056;-75
2023/10/29 06:37:34;;;;;;;1.27;0.20;;;11.90;99.90;;;;;;5032810;28;20121;-76
2023/10/29 06:40:03;;;;;;;1.70;0.20;;;11.80;99.90;;;;;;5043794;28;20056;-72
2023/10/29 06:42:28;;;;;;;4.63;0.30;;;11.80;99.90;;;;;;5015874;28;20108;-77
2023/10/29 06:44:54;;;;;;;2.22;0.63;;;11.80;99.90;;;;;;5015255;28;20144;-77
2023/10/29 06:47:19;;;;;;;1.88;0.38;;;11.80;99.90;;;;;;5038813;28;20034;-75
2023/10/29 06:49:45;;;;;;;6.28;1.05;;;11.80;99.90;;;;;;5036051;28;20449;-73
2023/10/29 06:52:10;;;;;;;5.07;0.38;;;11.80;99.90;;;;;;5015877;28;20033;-75
2023/10/29 06:54:36;;;;;;;5.97;0.70;;;11.70;99.90;;;;;;5023814;28;20053;-76
2023/10/29 06:57:02;;;;;;;9.10;1.23;;;11.70;99.90;;;;;;5023700;28;20033;-75
2023/10/29 06:59:28;;;;;;;2.53;0.38;;;11.70;99.90;;;;;;5013984;28;20037;-76
2023/10/29 07:01:56;;;;;;;3.22;0.70;;;11.70;99.90;;;;;;5014329;28;20030;-74
2023/10/29 07:04:22;;;;;;;1.63;0.20;;;11.70;99.90;;;;;;4996376;28;20519;-74
2023/10/29 07:06:49;;;;;;;3.63;0.32;;;11.70;99.90;;;;;;5022412;28;20021;-74
2023/10/29 07:09:15;;;;;;;4.47;0.30;;;11.70;99.90;;;;;;5020908;28;20033;-74
2023/10/29 07:11:42;;;;;;;5.72;0.30;;;11.70;99.90;;;;;;5011821;28;20513;-75
2023/10/29 07:14:07;;;;;;;4.35;0.30;;;11.70;99.90;;;;;;5012175;28;20029;-77
2023/10/29 07:16:33;;;;;;;2.72;0.77;;;11.60;99.90;;;;;;5006700;28;20037;-75
2023/10/29 07:18:58;;;;;;;2.65;0.30;;;11.70;99.90;;;;;;4986232;28;20121;-77
2023/10/29 07:21:24;;;;;;;1.45;0.10;;;11.60;99.90;;;;;;5006545;28;20510;-75
2023/10/29 07:23:50;;;;;;;2.63;0.40;;;11.60;99.90;;;;;;5025525;28;20511;-77
2023/10/29 07:26:15;;;;;;;3.55;0.28;;;11.70;99.90;;;;;;5023709;28;20069;-78
2023/10/29 07:28:41;;;;;;;1.73;0.35;;;11.70;99.90;;;;;;5021360;28;20041;-75
2023/10/29 07:31:06;;;;;;;3.88;0.40;;;11.70;99.90;;;;;;5013343;28;20037;-78
2023/10/29 07:33:32;;;;;;;2.35;0.30;;;11.80;99.90;;;;;;5028044;28;20073;-76
2023/10/29 07:36:01;;;;;;;4.28;0.43;;;11.80;99.90;;;;;;5017436;28;20041;-76
2023/10/29 07:38:27;;;;;;;3.05;0.30;;;11.80;99.90;;;;;;5029064;28;20926;-76
2023/10/29 07:40:52;;;;;;;4.38;1.25;;;11.80;99.90;;;;;;5039496;28;20038;-75
2023/10/29 07:43:18;;;;;;;2.90;0.47;;;11.90;99.90;;;;;;5027520;28;20498;-76
2023/10/29 07:45:44;;;;;;;5.20;0.77;;;11.90;99.90;;;;;;5006286;28;20752;-76
2023/10/29 07:48:10;;;;;;;2.65;0.30;;;11.90;99.90;;;;;;5029049;28;20561;-76
2023/10/29 07:50:35;;;;;;;2.17;0.47;;;12.00;99.90;;;;;;5011417;28;20041;-76
2023/10/29 07:53:01;;;;;;;4.32;0.47;;;12.00;99.90;;;;;;5012140;28;20034;-76
2023/10/29 07:55:26;;;;;;;1.70;0.40;;;12.10;99.90;;;;;;5020913;28;20037;-76
2023/10/29 07:57:52;;;;;;;3.08;0.50;;;12.10;99.90;;;;;;5040887;28;20406;-74
2023/10/29 08:00:18;;;;;;;2.78;0.93;;;12.10;99.90;;;;;;5045554;28;20025;-76
2023/10/29 08:02:44;;;;;;;4.57;0.88;;;12.10;99.90;;;;;;5019222;28;20065;-77
2023/10/29 08:05:14;;;;;;;2.15;0.22;;;12.20;99.90;;;;;;5026354;28;20037;-77
2023/10/29 08:07:40;;;;;;;2.22;0.57;;;12.30;99.90;;;;;;5012061;28;20026;-76
2023/10/29 08:10:06;;;;;;;3.40;0.45;;;12.30;99.90;;;;;;5008148;28;20041;-75
2023/10/29 08:12:34;;;;;;;5.22;0.60;;;12.40;99.90;;;;;;5015799;28;20040;-75
2023/10/29 08:15:00;;;;;;;4.13;0.60;;;12.40;99.90;;;;;;5031155;28;20026;-75
2023/10/29 08:17:25;;;;;;;3.03;0.40;;;12.40;99.90;;;;;;5029048;28;20044;-74
2023/10/29 08:19:52;;;;;;;2.53;0.25;;;12.40;99.90;;;;;;5045160;28;20025;-74
2023/10/29 08:22:18;;;;;;;3.03;0.28;;;12.40;99.90;;;;;;5030844;28;20145;-75
2023/10/29 08:24:43;;;;;;;3.92;0.30;;;12.50;99.90;;;;;;5008783;28;20116;-75
2023/10/29 08:27:09;;;;;;;4.72;0.52;;;12.50;99.90;;;;;;5007958;28;20041;-76
2023/10/29 08:29:35;;;;;;;8.80;0.93;;;12.50;99.90;;;;;;5008581;28;20040;-75
2023/10/29 08:32:02;;;;;;;4.35;0.30;;;12.50;99.90;;;;;;5008905;28;20035;-75
2023/10/29 08:34:28;;;;;;;6.53;0.85;;;12.50;99.90;;;;;;5007275;28;20045;-75
2023/10/29 08:36:54;;;;;;;2.65;0.30;;;12.50;99.90;;;;;;5026621;28;20033;-76
2023/10/29 08:39:21;;;;;;;2.95;1.02;;;12.40;99.90;;;;;;4995999;28;20026;-76
2023/10/29 08:41:51;;;;;;;2.25;0.28;;;12.40;99.90;;;;;;5014957;28;20033;-76
2023/10/29 08:44:19;;;;;;;7.90;0.47;;;12.30;99.90;;;;;;5004640;28;20029;-76
2023/10/29 08:46:44;;;;;;;8.00;0.40;;;12.20;99.90;;;;;;5022046;28;20041;-75
2023/10/29 08:49:11;;;;;;;7.90;0.50;;;12.20;99.90;;;;;;5006434;28;20368;-76
2023/10/29 08:51:37;;;;;;;1.42;0.30;;;12.20;99.90;;;;;;5012203;28;20430;-75
2023/10/29 08:54:03;;;;;;;1.05;0.35;;;12.20;99.90;;;;;;5012877;28;20105;-77
2023/10/29 08:56:32;;;;;;;3.80;0.90;;;12.30;99.90;;;;;;4992061;28;20488;-75
2023/10/29 08:58:57;;;;;;;5.15;0.50;;;12.40;99.90;;;;;;4994968;28;20109;-75
2023/10/29 09:01:23;;;;;;;4.15;0.60;;;12.50;99.90;;;;;;5017067;28;20116;-75
2023/10/29 09:03:49;;;;;;;3.60;0.25;;;12.50;99.90;;;;;;5016631;28;20038;-78
2023/10/29 09:06:14;;;;;;;4.05;0.63;;;12.70;99.90;;;;;;5036509;28;20076;-75
2023/10/29 09:08:40;;;;;;;7.78;0.52;;;12.80;99.90;;;;;;5033694;28;20079;-76
2023/10/29 09:11:06;;;;;;;3.50;0.68;;;12.90;99.90;;;;;;5032640;28;20029;-76
2023/10/29 09:13:32;;;;;;;2.15;0.40;;;13.00;99.90;;;;;;5028255;28;20041;-77
2023/10/29 09:15:58;;;;;;;14.70;1.08;;;13.10;99.90;;;;;;5014240;28;20048;-74
2023/10/29 09:18:23;;;;;;;6.07;0.50;;;13.10;99.90;;;;;;5030794;28;20441;-77
2023/10/29 09:20:50;;;;;;;3.75;0.60;;;13.10;99.90;;;;;;5030858;28;20041;-76
2023/10/29 09:23:16;;;;;;;3.95;0.50;;;13.10;99.90;;;;;;5016393;28;20025;-77
2023/10/29 09:25:45;;;;;;;5.30;0.70;;;13.10;99.90;;;;;;5016850;28;20056;-77
2023/10/29 09:28:11;;;;;;;6.85;0.73;;;13.10;99.90;;;;;;5035673;28;20036;-77
2023/10/29 09:30:38;;;;;;;7.10;0.82;;;13.20;99.90;;;;;;5041902;28;20041;-77
2023/10/29 09:33:05;;;;;;;5.90;0.50;;;13.10;99.90;;;;;;5021671;28;20037;-77
2023/10/29 09:35:32;;;;;;;5.47;0.50;;;13.20;99.90;;;;;;5015820;28;20530;-77
2023/10/29 09:37:58;;;;;;;4.88;0.30;;;13.20;99.90;;;;;;5013037;28;20029;-77
2023/10/29 09:40:24;;;;;;;1.58;0.20;;;13.20;99.90;;;;;;5012342;28;20036;-76
2023/10/29 09:42:59;;;;;;;5.60;0.80;;;13.20;99.90;;;;;;5013004;28;20021;-77
2023/10/29 09:45:26;;;;;;;2.83;0.40;;;13.20;99.90;;;;;;5026946;28;20135;-77
2023/10/29 09:47:56;;;;;;;6.38;0.50;;;13.20;99.90;;;;;;5050615;28;20403;-77
2023/10/29 09:50:22;;;;;;;4.38;0.65;;;13.20;99.90;;;;;;5046571;28;20491;-78
2023/10/29 09:52:54;;;;;;;5.82;0.73;;;13.20;99.90;;;;;;5012732;28;20018;-77
2023/10/29 09:55:20;;;;;;;4.30;0.55;;;13.20;99.90;;;;;;5016626;28;20087;-76
2023/10/29 09:57:47;;;;;;;5.13;0.98;;;13.20;99.90;;;;;;5028060;28;20118;-75
2023/10/29 10:00:16;;;;;;;2.17;0.25;;;13.20;99.90;;;;;;5031760;28;20048;-75
2023/10/29 10:02:56;;;;;;;4.05;0.65;;;13.20;99.90;;;;;;5030727;28;20021;-75
2023/10/29 10:05:27;;;;;;;3.95;0.70;;;13.20;99.90;;;;;;4991638;28;20392;-75
2023/10/29 10:07:53;;;;;;;3.72;0.80;;;13.20;99.90;;;;;;4992613;28;20438;-75
2023/10/29 10:10:20;;;;;;;4.60;0.85;;;13.20;99.90;;;;;;4991497;28;20083;-76
2023/10/29 10:12:48;;;;;;;10.00;0.70;;;13.30;99.90;;;;;;5009839;28;20360;-76
2023/10/29 10:15:15;;;;;;;5.30;0.95;;;13.20;99.90;;;;;;5009391;28;20033;-76
2023/10/29 10:17:56;;;;;;;5.30;0.52;;;13.30;99.90;;;;;;5027772;28;20461;-75
2023/10/29 10:20:22;;;;;;;3.85;1.17;;;13.30;99.90;;;;;;5030641;28;20108;-77
2023/10/29 10:22:58;;;;;;;9.35;0.98;;;13.30;99.90;;;;;;5031998;28;20029;-76
2023/10/29 10:25:25;;;;;;;7.50;0.82;;;13.30;99.90;;;;;;5030687;28;20387;-75
2023/10/29 10:27:52;;;;;;;7.25;0.63;;;13.30;99.90;;;;;;5027399;28;20025;-76
2023/10/29 10:30:33;;;;;;;5.43;0.75;;;13.40;99.90;;;;;;5048600;28;20584;-76
2023/10/29 10:33:20;;;;;;;7.45;1.00;;;13.40;99.90;;;;;;5015129;28;20026;-75
2023/10/29 10:35:52;;;;;;;7.40;0.73;;;13.60;99.90;;;;;;5008513;28;20116;-76
2023/10/29 10:38:24;;;;;;;9.13;1.42;;;13.70;99.90;;;;;;5009425;28;20017;-76
2023/10/29 10:40:59;;;;;;;8.23;1.17;;;13.80;99.90;;;;;;5006977;28;20112;-76
2023/10/29 10:43:28;;;;;;;13.13;1.13;;;13.90;99.90;;;;;;5003632;28;20030;-75
2023/10/29 10:45:55;;;;;;;4.88;1.17;;;13.90;99.90;;;;;;5004963;28;20053;-74
2023/10/29 10:48:20;;;;;;;3.60;0.38;;;14.00;99.90;;;;;;5002403;28;20104;-76
2023/10/29 10:50:47;;;;;;;5.20;0.60;;;13.90;99.90;;;;;;5028361;28;20124;-76
2023/10/29 10:53:16;;;;;;;6.40;0.85;;;14.00;99.90;;;;;;5030546;28;20125;-76
2023/10/29 10:55:43;;;;;;;5.82;0.75;;;14.00;99.90;;;;;;5034786;28;20415;-76
2023/10/29 10:58:12;;;;;;;11.10;1.65;;;13.90;99.90;;;;;;5014835;28;20033;-76
2023/10/29 11:00:38;;;;;;;2.78;0.60;;;13.90;99.90;;;;;;5048344;28;20116;-76
2023/10/29 11:03:05;;;;;;;6.82;0.60;;;13.80;99.90;;;;;;5026038;28;20116;-75
2023/10/29 11:05:33;;;;;;;10.88;1.83;;;13.80;99.90;;;;;;5011610;28;20065;-74
2023/10/29 11:07:59;;;;;;;3.60;0.75;;;13.80;99.90;;;;;;5007236;28;20037;-75
2023/10/29 11:10:28;;;;;;;5.85;0.77;;;13.80;99.90;;;;;;4990132;28;20597;-76
2023/10/29 11:12:54;;;;;;;10.15;1.58;;;13.80;99.90;;;;;;5014803;28;20037;-76
2023/10/29 11:15:21;;;;;;;4.32;0.50;;;13.80;99.90;;;;;;4999804;28;20099;-75
2023/10/29 11:18:01;;;;;;;4.82;0.70;;;13.80;99.90;;;;;;5012064;28;20033;-76
2023/10/29 11:20:41;;;;;;;10.85;0.63;;;13.90;99.90;;;;;;5017206;28;20029;-77
2023/10/29 11:23:13;;;;;;;7.60;1.25;;;13.80;99.90;;;;;;5028059;28;20036;-76
2023/10/29 11:25:39;;;;;;;4.05;1.08;;;13.80;99.90;;;;;;5022524;28;20309;-77
2023/10/29 11:28:26;;;;;;;2.92;0.70;;;13.80;99.90;;;;;;4996972;28;20161;-76
2023/10/29 11:31:20;;;;;;;9.40;1.40;;;13.70;99.90;;;;;;4984729;28;20040;-76
2023/10/29 11:33:48;;;;;;;3.60;1.05;;;13.70;99.90;;;;;;4995645;28;20558;-76
2023/10/29 11:36:32;;;;;;;4.70;1.02;;;13.70;99.90;;;;;;5010109;28;20029;-76
2023/10/29 11:39:16;;;;;;;4.05;0.57;;;13.70;99.90;;;;;;5028541;28;20394;-76
2023/10/29 11:41:45;;;;;;;6.38;0.60;;;13.70;99.90;;;;;;5017464;28;20069;-76
2023/10/29 11:44:20;;;;;;;6.07;0.57;;;13.70;99.90;;;;;;4997387;28;20068;-76
2023/10/29 11:46:57;;;;;;;5.65;1.05;;;13.70;99.90;;;;;;5008205;28;20030;-76
2023/10/29 11:49:23;;;;;;;7.10;1.50;;;13.70;99.90;;;;;;4999439;28;20050;-76
2023/10/29 11:52:02;;;;;;;3.50;0.82;;;13.80;99.90;;;;;;5012736;28;20031;-76
2023/10/29 11:54:32;;;;;;;4.60;0.93;;;13.70;99.90;;;;;;4997669;28;20756;-76
2023/10/29 11:56:59;;;;;;;4.15;0.63;;;13.80;99.90;;;;;;5017930;28;20033;-76
2023/10/29 11:59:25;;;;;;;3.25;0.90;;;13.70;99.90;;;;;;5022615;28;20787;-76
2023/10/29 12:01:52;;;;;;;7.80;0.70;;;13.60;99.90;;;;;;5008460;28;20120;-76
2023/10/29 12:04:17;;;;;;;5.65;0.65;;;13.70;99.90;;;;;;5012014;28;20017;-76
2023/10/29 12:06:48;;;;;;;5.13;1.52;;;13.70;99.90;;;;;;5029587;28;20036;-76
2023/10/29 12:09:24;;;;;;;4.20;0.60;;;13.80;99.90;;;;;;5025006;28;20033;-75
2023/10/29 12:11:52;;;;;;;9.20;0.73;;;13.80;99.90;;;;;;5028719;28;20518;-76
2023/10/29 12:14:42;;;;;;;8.60;0.63;;;13.90;99.90;;;;;;5017046;28;20048;-78
2023/10/29 12:17:08;;;;;;;3.72;0.50;;;13.90;99.90;;;;;;5037094;28;20033;-78
2023/10/29 12:19:41;;;;;;;5.47;0.90;;;13.80;99.90;;;;;;5023873;28;20124;-76
2023/10/29 12:22:27;;;;;;;10.60;1.02;;;13.80;99.90;;;;;;5015727;28;20090;-77
2023/10/29 12:24:55;;;;;;;4.45;0.55;;;13.90;99.90;;;;;;5019337;28;20629;-77
2023/10/29 12:27:22;;;;;;;6.82;0.50;;;13.80;99.90;;;;;;5011106;28;20029;-76
2023/10/29 12:29:49;;;;;;;6.68;0.75;;;13.70;99.90;;;;;;5014013;28;20070;-76
2023/10/29 12:32:20;;;;;;;7.10;0.80;;;13.70;99.90;;;;;;5020544;28;20053;-77
2023/10/29 12:34:57;;;;;;;8.48;0.70;;;13.70;99.90;;;;;;5008879;28;20100;-77
2023/10/29 12:37:28;;;;;;;6.68;0.93;;;13.70;99.90;;;;;;5009193;28;20132;-75
2023/10/29 12:40:01;;;;;;;8.43;0.80;;;13.60;99.90;;;;;;5010071;28;20037;-76
2023/10/29 12:42:52;;;;;;;7.60;1.38;;;13.70;99.90;;;;;;5008282;28;20037;-76
2023/10/29 12:45:30;;;;;;;5.75;0.60;;;13.80;99.90;;;;;;5008313;28;20024;-77